Time;durP1;ratioP1;P1;durP2;ratioP2;P2;SDS_P1;SDS_P2;PMS_P1;PMS_P2;Temp;Humidity;BMP_temperature;BMP_pressure;BME280_temperature;BME280_humidity;BME280_pressure;Samples;Min_cycle;Max_cycle;Signal;HPM_P1;HPM_P2
2021/09/20 00:00:55;;;;;;;2.70;0.78;;;;;;;7.79;100.00;98522.08;1630081;86;21007;-69
2021/09/20 00:03:25;;;;;;;1.57;0.60;;;;;;;7.79;100.00;98526.17;1637230;87;21011;-70
2021/09/20 00:05:54;;;;;;;3.58;1.02;;;;;;;7.78;100.00;98519.91;1628338;87;21045;-76
2021/09/20 00:08:22;;;;;;;3.35;0.90;;;;;;;7.80;100.00;98514.13;1635047;87;20979;-69
2021/09/20 00:10:51;;;;;;;1.32;0.70;;;;;;;7.80;100.00;98510.83;1634985;87;21015;-66
2021/09/20 00:13:20;;;;;;;2.77;0.60;;;;;;;7.80;100.00;98512.20;1631722;87;21536;-66
2021/09/20 00:15:50;;;;;;;3.62;0.88;;;;;;;7.81;100.00;98511.63;1634433;87;21055;-67
2021/09/20 00:18:23;;;;;;;3.15;0.60;;;;;;;7.80;100.00;98515.48;1634115;87;21705;-67
2021/09/20 00:20:57;;;;;;;1.30;0.57;;;;;;;7.80;100.00;98511.39;1615608;87;21141;-67
2021/09/20 00:23:26;;;;;;;0.90;0.70;;;;;;;7.78;100.00;98517.74;1642353;86;21554;-67
2021/09/20 00:25:58;;;;;;;2.35;0.60;;;;;;;7.77;100.00;98515.57;1629118;88;21052;-67
2021/09/20 00:28:32;;;;;;;1.52;0.70;;;;;;;7.76;100.00;98512.59;1632686;87;20995;-66
2021/09/20 00:31:01;;;;;;;1.07;0.72;;;;;;;7.77;100.00;98513.40;1604458;88;21519;-67
2021/09/20 00:33:36;;;;;;;1.05;0.70;;;;;;;7.74;100.00;98508.02;1599085;88;21137;-67
2021/09/20 00:36:07;;;;;;;0.65;0.60;;;;;;;7.80;100.00;98512.76;1630387;87;21051;-68
2021/09/20 00:38:36;;;;;;;1.05;0.60;;;;;;;7.79;100.00;98510.59;1633710;87;21034;-66
2021/09/20 00:41:06;;;;;;;1.20;0.65;;;;;;;7.79;100.00;98510.59;1604698;88;21192;-66
2021/09/20 00:43:42;;;;;;;3.62;0.98;;;;;;;7.78;100.00;98509.55;1643126;86;20956;-68
2021/09/20 00:46:12;;;;;;;2.58;0.60;;;;;;;7.77;100.00;98510.67;1644300;86;21022;-68
2021/09/20 00:48:44;;;;;;;0.95;0.42;;;;;;;7.77;100.00;98512.84;1641882;86;21164;-66
2021/09/20 00:51:14;;;;;;;0.62;0.60;;;;;;;7.76;100.00;98511.23;1625174;88;21029;-67
2021/09/20 00:53:47;;;;;;;0.77;0.60;;;;;;;7.77;100.00;98510.67;1634130;87;21119;-67
2021/09/20 00:56:15;;;;;;;4.97;0.90;;;;;;;7.76;100.00;98505.77;1628472;87;21811;-67
2021/09/20 00:58:51;;;;;;;2.05;0.50;;;;;;;7.74;100.00;98507.22;1630855;86;20987;-67
2021/09/20 01:01:24;;;;;;;1.35;0.50;;;;;;;7.73;100.00;98502.31;1611306;87;21098;-67
2021/09/20 01:03:53;;;;;;;1.22;0.53;;;;;;;7.73;100.00;98509.70;1633679;86;21010;-67
2021/09/20 01:06:27;;;;;;;1.75;0.57;;;;;;;7.73;100.00;98504.24;1636714;86;21245;-67
2021/09/20 01:08:56;;;;;;;1.02;0.75;;;;;;;7.74;100.00;98501.19;1644362;86;21199;-67
2021/09/20 01:11:27;;;;;;;1.57;0.50;;;;;;;7.75;100.00;98507.45;1631934;86;21022;-67
2021/09/20 01:13:55;;;;;;;0.75;0.70;;;;;;;7.74;100.00;98508.02;1637498;86;21117;-67
2021/09/20 01:16:26;;;;;;;3.02;0.90;;;;;;;7.73;100.00;98506.97;1643914;86;21087;-68
2021/09/20 01:18:59;;;;;;;3.75;0.80;;;;;;;7.72;100.00;98502.64;1633902;86;21193;-67
2021/09/20 01:21:33;;;;;;;0.93;0.68;;;;;;;7.72;100.00;98502.07;1633050;87;21057;-69
2021/09/20 01:24:01;;;;;;;0.70;0.60;;;;;;;7.71;100.00;98498.30;1629019;87;21088;-67
2021/09/20 01:26:36;;;;;;;0.70;0.45;;;;;;;7.72;100.00;98500.70;1635528;87;21021;-67
2021/09/20 01:29:11;;;;;;;3.35;0.90;;;;;;;7.71;100.00;98493.64;1626427;87;21228;-67
2021/09/20 01:31:48;;;;;;;0.65;0.60;;;;;;;7.73;100.00;98496.05;1636422;87;21176;-66
2021/09/20 01:34:22;;;;;;;1.32;0.80;;;;;;;7.74;100.00;98494.92;1640156;87;21573;-68
2021/09/20 01:36:52;;;;;;;1.62;0.85;;;;;;;7.75;100.00;98493.80;1626429;87;21061;-68
2021/09/20 01:39:28;;;;;;;1.12;0.78;;;;;;;7.75;100.00;98495.16;1627743;86;21051;-69
2021/09/20 01:41:57;;;;;;;0.75;0.75;;;;;;;7.75;100.00;98497.33;1593074;89;20922;-68
2021/09/20 01:44:26;;;;;;;;;;;;;;;7.76;100.00;98493.48;1627642;86;21049;-69
2021/09/20 01:46:57;;;;;;;2.30;0.90;;;;;;;7.77;100.00;98492.34;1639144;86;20158;-69
2021/09/20 01:49:26;;;;;;;1.50;0.90;;;;;;;7.76;100.00;98491.30;1612087;85;21031;-69
2021/09/20 01:51:59;;;;;;;2.17;1.05;;;;;;;7.76;100.00;98493.48;1635405;86;21089;-68
2021/09/20 01:54:28;;;;;;;3.05;0.88;;;;;;;7.78;100.00;98493.95;1629021;86;21097;-69
2021/09/20 01:57:00;;;;;;;1.30;0.88;;;;;;;7.78;100.00;98492.59;1635958;86;21549;-68
2021/09/20 01:59:32;;;;;;;;;;;;;;;7.78;100.00;98493.16;1642001;87;22068;-69
2021/09/20 02:02:07;;;;;;;1.45;0.80;;;;;;;7.78;100.00;98493.95;1644382;85;20123;-68
2021/09/20 02:04:40;;;;;;;1.40;0.90;;;;;;;7.78;100.00;98495.32;1649060;86;20990;-68
2021/09/20 02:07:13;;;;;;;1.60;1.00;;;;;;;7.79;100.00;98491.47;1648433;86;21521;-68
2021/09/20 02:09:42;;;;;;;1.35;1.05;;;;;;;7.81;100.00;98491.95;1683869;84;21440;-68
2021/09/20 02:12:14;;;;;;;2.10;1.10;;;;;;;7.83;100.00;98496.52;1623955;86;21076;-70
2021/09/20 02:14:43;;;;;;;2.60;1.10;;;;;;;7.86;100.00;98497.80;1649397;86;21015;-70
2021/09/20 02:17:15;;;;;;;1.90;0.90;;;;;;;7.87;100.00;98493.95;1661386;85;21527;-68
2021/09/20 02:19:48;;;;;;;1.35;0.90;;;;;;;7.87;100.00;98497.48;1655627;85;20877;-69
2021/09/20 02:22:18;;;;;;;3.15;0.70;;;;;;;7.88;100.00;98503.75;1651338;85;20986;-70
2021/09/20 02:24:46;;;;;;;1.37;1.00;;;;;;;7.87;100.00;98497.48;1661396;84;21011;-69
2021/09/20 02:27:30;;;;;;;1.20;0.90;;;;;;;7.89;100.00;98499.89;1661377;86;20972;-69
2021/09/20 02:29:49;;;;;;;2.37;1.20;;;;;;;7.90;100.00;98503.67;1653577;86;21068;-69
2021/09/20 02:32:18;;;;;;;1.45;0.98;;;;;;;7.91;100.00;98499.81;1655947;85;21557;-71
2021/09/20 02:34:46;;;;;;;3.10;1.15;;;;;;;7.92;100.00;98502.78;1656984;86;21501;-72
2021/09/20 02:37:17;;;;;;;3.62;1.27;;;;;;;7.93;100.00;98503.02;1660195;86;20981;-70
2021/09/20 02:39:51;;;;;;;1.72;1.10;;;;;;;7.92;100.00;98502.78;1659469;85;20911;-70
2021/09/20 02:42:25;;;;;;;2.42;1.10;;;;;;;7.91;100.00;98508.01;1645842;86;21573;-70
2021/09/20 02:44:55;;;;;;;1.90;1.42;;;;;;;7.90;100.00;98506.41;1654769;86;20957;-70
2021/09/20 02:47:26;;;;;;;1.45;1.17;;;;;;;7.89;100.00;98507.53;1663844;85;20961;-69
2021/09/20 02:49:57;;;;;;;1.92;1.02;;;;;;;7.90;100.00;98509.13;1665592;86;21006;-70
2021/09/20 02:52:32;;;;;;;1.20;1.00;;;;;;;7.91;100.00;98503.91;1656944;85;21070;-70
2021/09/20 02:55:03;;;;;;;1.35;1.00;;;;;;;7.92;100.00;98512.34;1657044;86;21043;-71
2021/09/20 02:57:32;;;;;;;1.47;0.93;;;;;;;7.94;100.00;98505.20;1659542;85;20996;-70
2021/09/20 03:00:01;;;;;;;1.57;0.90;;;;;;;7.94;100.00;98506.56;1660324;85;21116;-69
2021/09/20 03:02:31;;;;;;;2.77;0.85;;;;;;;7.93;100.00;98509.86;1657155;85;21019;-70
2021/09/20 03:05:00;;;;;;;3.05;0.90;;;;;;;7.93;100.00;98503.59;1655027;85;21062;-69
2021/09/20 03:07:37;;;;;;;1.20;1.00;;;;;;;7.91;100.00;98495.72;1657517;85;21076;-69
2021/09/20 03:10:10;;;;;;;1.15;0.80;;;;;;;7.90;100.00;98498.20;1623982;86;21128;-70
2021/09/20 03:12:40;;;;;;;1.65;0.72;;;;;;;7.92;100.00;98497.88;1655813;85;20952;-69
2021/09/20 03:15:17;;;;;;;2.83;0.80;;;;;;;7.92;100.00;98499.25;1664735;86;21020;-71
2021/09/20 03:17:49;;;;;;;1.25;0.90;;;;;;;7.92;100.00;98501.98;1662139;86;20976;-69
2021/09/20 03:20:25;;;;;;;1.02;0.88;;;;;;;7.91;100.00;98503.91;1657231;85;21011;-70
2021/09/20 03:22:54;;;;;;;1.85;0.75;;;;;;;7.91;100.00;98505.28;1631906;86;20980;-69
2021/09/20 03:25:21;;;;;;;2.33;0.68;;;;;;;7.92;100.00;98500.62;1638032;85;21166;-69
2021/09/20 03:27:53;;;;;;;2.70;0.75;;;;;;;7.91;100.00;98506.64;1635951;86;21091;-70
2021/09/20 03:30:23;;;;;;;1.82;0.80;;;;;;;7.92;100.00;98510.98;1624465;87;21031;-70
2021/09/20 03:32:54;;;;;;;0.82;0.60;;;;;;;7.92;100.00;98503.34;1629152;86;21070;-69
2021/09/20 03:35:31;;;;;;;1.32;0.75;;;;;;;7.92;100.00;98512.34;1623739;87;21137;-68
2021/09/20 03:37:59;;;;;;;4.22;0.60;;;;;;;7.91;100.00;98506.64;1630469;86;21560;-70
2021/09/20 03:40:33;;;;;;;1.47;0.60;;;;;;;7.91;100.00;98514.84;1623192;87;21721;-69
2021/09/20 03:43:05;;;;;;;0.63;0.63;;;;;;;7.92;100.00;98515.08;1620212;87;21457;-69
2021/09/20 03:45:38;;;;;;;0.50;0.50;;;;;;;7.92;100.00;98512.34;1640115;86;21008;-71
2021/09/20 03:48:10;;;;;;;1.95;0.70;;;;;;;7.91;100.00;98510.74;1641933;86;21457;-71
2021/09/20 03:50:42;;;;;;;3.08;0.60;;;;;;;7.92;100.00;98517.02;1642853;86;21171;-71
2021/09/20 03:53:13;;;;;;;0.90;0.57;;;;;;;7.91;100.00;98520.30;1638448;86;28736;-72
2021/09/20 03:55:45;;;;;;;0.72;0.60;;;;;;;7.92;100.00;98523.28;1641798;86;20969;-70
2021/09/20 03:58:15;;;;;;;0.78;0.60;;;;;;;7.93;100.00;98527.62;1636167;86;21037;-70
2021/09/20 04:00:44;;;;;;;0.93;0.60;;;;;;;7.95;100.00;98531.40;1648966;86;21572;-71
2021/09/20 04:03:16;;;;;;;1.27;0.53;;;;;;;7.96;100.00;98531.64;1654244;86;20965;-72
2021/09/20 04:05:46;;;;;;;1.42;0.60;;;;;;;7.98;100.00;98538.14;1637628;85;20961;-70
2021/09/20 04:08:16;;;;;;;1.02;0.47;;;;;;;7.99;100.00;98539.75;1655905;85;21071;-70
2021/09/20 04:10:52;;;;;;;2.05;0.68;;;;;;;7.99;100.00;98533.72;1659920;86;20973;-72
2021/09/20 04:13:19;;;;;;;4.55;0.70;;;;;;;8.00;100.00;98534.53;1650670;84;21558;-71
2021/09/20 04:15:55;;;;;;;1.12;0.57;;;;;;;8.01;100.00;98536.13;1651334;84;20999;-70
2021/09/20 04:18:28;;;;;;;0.50;0.50;;;;;;;8.01;100.00;98538.30;1654744;84;21047;-70
2021/09/20 04:20:59;;;;;;;1.10;0.47;;;;;;;8.03;100.00;98544.81;1596788;86;20920;-71
2021/09/20 04:23:31;;;;;;;0.42;0.33;;;;;;;8.04;100.00;98545.86;1626775;87;21051;-70
2021/09/20 04:26:01;;;;;;;2.00;0.68;;;;;;;8.07;100.00;98543.05;1628383;86;21120;-70
2021/09/20 04:28:33;;;;;;;0.72;0.40;;;;;;;8.09;100.00;98548.40;1645356;86;21588;-72
2021/09/20 04:31:04;;;;;;;0.45;0.40;;;;;;;8.13;100.00;98543.09;1625334;86;21024;-70
2021/09/20 04:33:38;;;;;;;0.75;0.42;;;;;;;8.15;100.00;98547.67;1641451;86;20961;-68
2021/09/20 04:36:09;;;;;;;0.53;0.30;;;;;;;8.18;100.00;98554.66;1638621;86;20976;-68
2021/09/20 04:38:41;;;;;;;0.53;0.20;;;;;;;8.21;100.00;98545.81;1650267;86;21595;-69
2021/09/20 04:41:12;;;;;;;0.72;0.25;;;;;;;8.22;100.00;98550.16;1655213;85;21678;-69
2021/09/20 04:43:41;;;;;;;2.05;0.37;;;;;;;8.25;100.00;98548.70;1639474;86;21032;-68
2021/09/20 04:46:11;;;;;;;1.22;0.20;;;;;;;8.30;100.00;98545.80;1658577;85;21061;-68
2021/09/20 04:48:43;;;;;;;0.50;0.50;;;;;;;8.34;100.00;98548.16;1662575;86;21072;-69
2021/09/20 04:51:16;;;;;;;0.53;0.50;;;;;;;8.36;100.00;98541.80;1660923;85;21063;-70
2021/09/20 04:53:47;;;;;;;1.75;0.30;;;;;;;8.39;100.00;98550.72;1654156;86;21002;-69
2021/09/20 04:56:16;;;;;;;1.02;0.30;;;;;;;8.40;100.00;98555.05;1649720;85;21068;-68
2021/09/20 04:58:45;;;;;;;0.57;0.40;;;;;;;8.40;100.00;98552.32;1656629;86;21025;-69
2021/09/20 05:01:26;;;;;;;0.40;0.40;;;;;;;8.44;100.00;98559.31;1622044;86;20932;-67
2021/09/20 05:03:51;;;;;;;0.65;0.40;;;;;;;8.48;100.00;98560.27;1651971;86;20996;-68
2021/09/20 05:06:20;;;;;;;0.50;0.50;;;;;;;8.50;100.00;98562.92;1657557;86;22115;-68
2021/09/20 05:08:50;;;;;;;1.40;0.60;;;;;;;8.53;100.00;98562.27;1661082;84;21567;-67
2021/09/20 05:11:27;;;;;;;1.12;0.95;;;;;;;8.55;100.00;98564.11;1631776;87;20988;-68
2021/09/20 05:14:01;;;;;;;0.88;0.80;;;;;;;8.57;100.00;98556.38;1644130;86;20936;-74
2021/09/20 05:16:35;;;;;;;2.45;1.20;;;;;;;8.60;100.00;98566.67;1648313;86;21347;-69
2021/09/20 05:19:03;;;;;;;3.27;1.25;;;;;;;8.62;100.00;98573.19;1638401;86;20960;-70
2021/09/20 05:21:39;;;;;;;3.17;1.50;;;;;;;8.65;100.00;98569.80;1629759;86;20990;-69
2021/09/20 05:24:05;;;;;;;4.22;1.12;;;;;;;8.67;100.00;98577.09;1641963;86;21047;-68
2021/09/20 05:26:37;;;;;;;2.98;1.35;;;;;;;8.68;100.00;98577.89;1628540;86;21531;-70
2021/09/20 05:29:05;;;;;;;1.72;0.93;;;;;;;8.70;100.00;98583.27;1637758;87;21534;-67
2021/09/20 05:31:35;;;;;;;3.08;0.93;;;;;;;8.73;99.99;98583.19;1668943;85;21008;-68
2021/09/20 05:34:07;;;;;;;0.80;0.60;;;;;;;8.74;99.71;98586.16;1636522;86;21058;-68
2021/09/20 05:36:42;;;;;;;0.88;0.70;;;;;;;8.74;99.02;98582.06;1632853;87;21096;-68
2021/09/20 05:39:11;;;;;;;0.72;0.60;;;;;;;8.74;99.12;98582.06;1629162;87;21113;-70
2021/09/20 05:41:43;;;;;;;2.02;0.88;;;;;;;8.74;98.40;98585.59;1641037;86;21564;-68
2021/09/20 05:44:27;;;;;;;1.70;0.80;;;;;;;8.74;98.07;98588.90;1624639;87;21052;-68
2021/09/20 05:46:56;;;;;;;0.78;0.75;;;;;;;8.75;97.47;98587.77;1609222;87;21028;-69
2021/09/20 05:49:29;;;;;;;0.55;0.50;;;;;;;8.73;97.42;98594.13;1643179;86;21046;-69
2021/09/20 05:52:03;;;;;;;1.12;0.60;;;;;;;8.74;97.69;98593.80;1636616;86;21566;-69
2021/09/20 05:54:36;;;;;;;1.25;0.72;;;;;;;8.75;97.85;98594.05;1608801;87;21174;-70
2021/09/20 05:57:11;;;;;;;1.77;0.90;;;;;;;8.77;97.23;98604.09;1644246;86;21198;-70
2021/09/20 05:59:41;;;;;;;1.27;0.80;;;;;;;8.80;97.39;98601.28;1613864;87;21826;-70
2021/09/20 06:02:11;;;;;;;1.47;0.80;;;;;;;8.82;97.10;98600.38;1621736;87;21017;-69
2021/09/20 06:04:39;;;;;;;3.00;0.75;;;;;;;8.85;96.61;98597.80;1595370;88;21137;-70
2021/09/20 06:07:11;;;;;;;4.95;0.88;;;;;;;8.86;96.33;98595.86;1604921;88;21123;-69
2021/09/20 06:09:42;;;;;;;4.85;1.27;;;;;;;8.88;96.11;98609.46;1603641;87;21083;-69
2021/09/20 06:12:12;;;;;;;0.90;0.72;;;;;;;8.91;95.73;98610.17;1600524;88;21465;-71
2021/09/20 06:14:54;;;;;;;;;;;;;;;8.92;95.99;98616.45;1644009;86;21051;-69
2021/09/20 06:17:09;;;;;;;1.52;1.25;;;;;;;8.95;96.21;98617.17;1646324;87;20973;-71
2021/09/20 06:19:39;;;;;;;1.02;0.90;;;;;;;8.97;96.25;98622.31;1656988;86;21005;-70
2021/09/20 06:22:15;;;;;;;1.72;1.07;;;;;;;8.97;95.43;98623.13;1598065;87;21072;-68
2021/09/20 06:24:44;;;;;;;2.45;1.05;;;;;;;8.97;95.22;98625.86;1636171;86;21015;-71
2021/09/20 06:27:14;;;;;;;1.47;0.98;;;;;;;8.97;94.79;98624.48;1635873;86;21633;-70
2021/09/20 06:29:46;;;;;;;3.62;1.10;;;;;;;8.97;94.54;98632.70;1670536;85;21452;-68
2021/09/20 06:32:18;;;;;;;5.65;1.30;;;;;;;8.99;94.62;98630.44;1634509;87;20967;-67
2021/09/20 06:34:50;;;;;;;2.12;1.17;;;;;;;9.03;94.85;98638.23;1612133;87;21237;-67
2021/09/20 06:37:21;;;;;;;3.33;1.40;;;;;;;9.06;94.89;98644.99;1606453;88;21020;-69
2021/09/20 06:39:56;;;;;;;2.08;1.00;;;;;;;9.06;94.65;98642.25;1609127;87;21005;-72
2021/09/20 06:42:27;;;;;;;1.00;0.90;;;;;;;9.08;94.67;98649.02;1651896;84;21500;-67
2021/09/20 06:44:59;;;;;;;1.77;0.93;;;;;;;9.08;94.09;98646.27;1650966;85;21047;-68
2021/09/20 06:47:28;;;;;;;1.30;0.85;;;;;;;9.10;94.18;98645.37;1651423;85;21177;-70
2021/09/20 06:49:58;;;;;;;5.12;0.98;;;;;;;9.12;94.58;98652.70;1650139;84;21015;-70
2021/09/20 06:52:30;;;;;;;1.82;1.00;;;;;;;9.14;94.31;98659.22;1644574;86;21002;-71
2021/09/20 06:54:56;;;;;;;2.72;0.90;;;;;;;9.14;94.89;98655.91;1653637;85;20959;-72
2021/09/20 06:57:25;;;;;;;1.77;0.80;;;;;;;9.15;94.37;98662.20;1657884;86;21022;-69
2021/09/20 06:59:53;;;;;;;1.77;1.07;;;;;;;9.15;94.61;98659.45;1646316;86;20876;-70
2021/09/20 07:02:25;;;;;;;10.43;1.15;;;;;;;9.15;94.98;98660.26;1641719;86;21078;-69
2021/09/20 07:04:56;;;;;;;2.75;1.35;;;;;;;9.17;95.04;98666.78;1650168;86;20964;-72
2021/09/20 07:07:32;;;;;;;2.02;1.22;;;;;;;9.15;94.94;98665.73;1649552;85;21591;-71
2021/09/20 07:10:02;;;;;;;3.80;1.00;;;;;;;9.17;95.33;98673.63;1633697;86;21081;-69
2021/09/20 07:12:37;;;;;;;1.62;1.10;;;;;;;9.17;95.42;98684.02;1644189;86;21840;-68
2021/09/20 07:15:08;;;;;;;2.22;1.50;;;;;;;9.15;95.52;98672.58;1638745;86;20975;-68
2021/09/20 07:17:37;;;;;;;1.92;0.80;;;;;;;9.17;95.94;98681.27;1638374;85;21655;-70
2021/09/20 07:20:12;;;;;;;1.22;0.80;;;;;;;9.17;96.29;98685.95;1649095;86;21001;-69
2021/09/20 07:22:43;;;;;;;2.37;1.20;;;;;;;9.15;96.76;98684.10;1658583;86;21079;-68
2021/09/20 07:25:16;;;;;;;1.67;1.00;;;;;;;9.16;96.90;98688.45;1660885;85;21151;-69
2021/09/20 07:27:46;;;;;;;0.95;0.85;;;;;;;9.17;97.04;98690.05;1634120;85;21439;-68
2021/09/20 07:30:22;;;;;;;2.80;1.50;;;;;;;9.17;97.24;98690.05;1650778;86;21082;-70
2021/09/20 07:32:56;;;;;;;3.08;1.20;;;;;;;9.17;97.44;98690.05;1647494;85;20973;-69
2021/09/20 07:35:28;;;;;;;2.58;1.00;;;;;;;9.18;97.89;98692.47;1655364;85;20980;-69
2021/09/20 07:38:07;;;;;;;3.47;1.10;;;;;;;9.18;98.04;98695.20;1638229;86;21139;-73
2021/09/20 07:40:45;;;;;;;2.47;1.50;;;;;;;9.16;98.54;98693.92;1584170;87;21037;-70
2021/09/20 07:43:33;;;;;;;1.98;1.00;;;;;;;9.13;99.18;98694.02;1599968;87;21057;-68
2021/09/20 07:46:25;;;;;;;2.58;1.27;;;;;;;9.13;99.83;98700.05;1612562;88;21015;-69
2021/09/20 07:51:43;;;;;;;2.85;1.00;;;;;;;9.13;100.00;98703.59;1587960;86;21213;-71
2021/09/20 07:54:11;;;;;;;3.65;1.22;;;;;;;9.15;100.00;98695.05;1634930;85;21055;-70
2021/09/20 07:56:42;;;;;;;5.83;0.95;;;;;;;9.18;100.00;98702.61;1624707;86;21617;-71
2021/09/20 07:59:13;;;;;;;2.92;0.90;;;;;;;9.23;100.00;98696.96;1593254;89;21145;-69
2021/09/20 08:01:46;;;;;;;2.27;1.20;;;;;;;9.32;100.00;98696.91;1619383;86;21034;-73
2021/09/20 08:04:12;;;;;;;1.00;0.80;;;;;;;9.37;100.00;98697.53;1633509;86;21064;-68
2021/09/20 08:06:41;;;;;;;1.40;0.95;;;;;;;9.44;100.00;98696.45;1627206;85;21591;-72
2021/09/20 08:09:11;;;;;;;4.90;1.40;;;;;;;9.53;100.00;98693.68;1611388;85;21075;-73
2021/09/20 08:11:41;;;;;;;1.52;1.07;;;;;;;9.66;100.00;98694.02;1646576;86;20996;-71
2021/09/20 08:14:10;;;;;;;4.92;1.37;;;;;;;9.77;100.00;98695.82;1643580;85;21079;-71
2021/09/20 08:16:39;;;;;;;1.30;0.95;;;;;;;9.85;100.00;98693.00;1652502;84;21234;-70
2021/09/20 08:19:11;;;;;;;2.35;1.20;;;;;;;9.89;100.00;98695.31;1650189;85;21072;-69
2021/09/20 08:21:42;;;;;;;1.17;0.90;;;;;;;9.90;100.00;98702.98;1639591;85;21033;-68
2021/09/20 08:24:13;;;;;;;5.58;1.02;;;;;;;9.94;100.00;98702.55;1637665;86;26966;-70
2021/09/20 08:26:46;;;;;;;;;;;;;;;10.00;100.00;98706.70;1629974;86;21065;-70
2021/09/20 08:29:13;;;;;;;1.60;1.07;;;;;;;10.09;100.00;98703.91;1631262;87;21156;-71
2021/09/20 08:31:44;;;;;;;2.17;1.00;;;;;;;10.10;99.86;98711.80;1636107;85;21071;-70
2021/09/20 08:34:19;;;;;;;3.30;0.90;;;;;;;10.15;100.00;98710.81;1628484;85;21373;-70
2021/09/20 08:36:47;;;;;;;2.00;0.90;;;;;;;10.19;99.11;98709.01;1615656;87;21074;-76
2021/09/20 08:39:20;;;;;;;2.22;0.90;;;;;;;10.23;99.35;98718.20;1600625;89;21072;-73
2021/09/20 08:41:51;;;;;;;4.05;0.90;;;;;;;10.24;97.91;98723.93;1627069;86;22398;-71
2021/09/20 08:44:22;;;;;;;2.02;0.90;;;;;;;10.27;98.14;98721.89;1599346;88;21094;-72
2021/09/20 08:46:56;;;;;;;1.15;1.00;;;;;;;10.33;98.93;98728.79;1631576;86;21047;-76
2021/09/20 08:49:26;;;;;;;1.17;0.70;;;;;;;10.41;97.56;98721.03;1631174;86;21077;-72
2021/09/20 08:51:57;;;;;;;1.00;0.70;;;;;;;10.43;96.79;98729.73;1637786;86;21569;-72
2021/09/20 08:54:25;;;;;;;1.12;1.02;;;;;;;10.44;96.54;98730.54;1643136;86;21157;-67
2021/09/20 08:56:52;;;;;;;3.33;1.60;;;;;;;10.47;96.40;98731.24;1650775;86;21074;-76
2021/09/20 08:59:23;;;;;;;3.65;2.20;;;;;;;10.50;96.17;98724.52;1642521;85;21730;-78
2021/09/20 09:01:54;;;;;;;;;;;;;;;10.55;95.95;98736.66;1636683;86;21066;-76
2021/09/20 09:04:31;;;;;;;0.72;0.62;;;;;;;10.63;95.46;98736.36;1631421;85;20207;-74
2021/09/20 09:07:07;;;;;;;1.15;0.45;;;;;;;10.65;95.03;98740.95;1622466;86;22260;-74
2021/09/20 09:09:39;;;;;;;0.85;0.50;;;;;;;10.68;94.97;98736.73;1635183;86;21101;-70
2021/09/20 09:12:23;;;;;;;1.65;0.70;;;;;;;10.68;94.45;98738.10;1615359;86;20978;-72
2021/09/20 09:15:05;;;;;;;1.30;0.50;;;;;;;10.70;95.37;98739.94;1605948;86;21352;-72
2021/09/20 09:17:41;;;;;;;1.82;0.60;;;;;;;10.68;94.40;98748.52;1624627;85;21112;-78
2021/09/20 09:20:15;;;;;;;1.65;0.80;;;;;;;10.67;94.74;98752.40;1655023;85;21170;-78
2021/09/20 09:22:54;;;;;;;3.35;1.40;;;;;;;10.69;95.35;98758.36;1659088;86;20963;-77
2021/09/20 09:25:41;;;;;;;2.15;1.40;;;;;;;10.74;95.92;98758.72;1653292;85;21001;-79
2021/09/20 09:28:28;;;;;;;1.50;0.88;;;;;;;10.81;95.88;98757.61;1655227;85;21090;-78
2021/09/20 09:31:09;;;;;;;2.37;1.57;;;;;;;10.86;94.67;98762.90;1650039;86;21020;-74
2021/09/20 09:33:39;;;;;;;1.65;0.68;;;;;;;10.87;94.98;98760.39;1637257;85;21235;-74
2021/09/20 09:36:14;;;;;;;0.42;0.40;;;;;;;10.89;94.16;98771.27;1617352;85;21065;-75
2021/09/20 09:39:02;;;;;;;2.23;0.70;;;;;;;10.86;94.00;98767.82;1653396;84;21030;-77
2021/09/20 09:41:42;;;;;;;0.80;0.50;;;;;;;10.83;93.79;98775.92;1612994;87;21619;-75
2021/09/20 09:44:16;;;;;;;0.75;0.40;;;;;;;10.81;94.02;98774.89;1595347;88;21200;-74
2021/09/20 09:46:45;;;;;;;0.93;0.60;;;;;;;10.77;93.23;98771.20;1596233;89;21190;-76
2021/09/20 09:49:21;;;;;;;1.15;0.80;;;;;;;10.73;93.20;98773.59;1598097;88;21077;-76
2021/09/20 09:52:01;;;;;;;1.60;0.70;;;;;;;10.70;93.28;98776.43;1612994;88;21089;-76
2021/09/20 09:54:37;;;;;;;0.90;0.70;;;;;;;10.68;93.72;98786.94;1641085;86;21005;-76
2021/09/20 09:57:22;;;;;;;1.62;0.65;;;;;;;10.68;93.40;98780.65;1657416;86;21052;-76
2021/09/20 10:00:13;;;;;;;1.40;0.90;;;;;;;10.67;93.71;98782.59;1654995;85;20940;-75
2021/09/20 10:03:03;;;;;;;1.27;0.53;;;;;;;10.69;93.96;98784.43;1636884;85;21025;-75
2021/09/20 10:05:30;;;;;;;1.87;0.70;;;;;;;10.71;93.98;98784.09;1716768;83;21038;-77
2021/09/20 10:08:04;;;;;;;0.82;0.40;;;;;;;10.73;94.49;98795.55;1715424;83;21529;-76
2021/09/20 10:10:40;;;;;;;1.27;0.70;;;;;;;10.75;94.99;98795.45;1714946;83;21537;-76
2021/09/20 10:13:17;;;;;;;1.75;0.72;;;;;;;10.77;95.66;98792.37;1691668;83;20991;-78
2021/09/20 10:15:43;;;;;;;2.22;0.80;;;;;;;10.78;96.28;98793.97;1708698;83;21043;-76
2021/09/20 10:18:16;;;;;;;1.50;0.78;;;;;;;10.78;97.14;98798.09;1706801;83;20991;-76
2021/09/20 10:20:47;;;;;;;0.88;0.65;;;;;;;10.80;97.92;98797.19;1689304;84;21534;-77
2021/09/20 10:23:20;;;;;;;1.92;0.88;;;;;;;10.82;98.02;98800.41;1690457;84;20903;-75
2021/09/20 10:25:49;;;;;;;;;;;;;;;10.79;98.12;98801.88;1671245;84;21062;-73
2021/09/20 10:28:31;;;;;;;2.67;1.82;;;;;;;10.78;99.00;98802.21;1687760;84;20101;-76
2021/09/20 10:30:57;;;;;;;0.95;0.90;;;;;;;10.76;99.34;98798.99;1685713;83;21001;-72
2021/09/20 10:33:30;;;;;;;0.68;0.60;;;;;;;10.73;99.42;98801.84;1707295;83;20961;-75
2021/09/20 10:36:00;;;;;;;0.72;0.60;;;;;;;10.73;99.96;98802.41;1643511;86;21550;-73
2021/09/20 10:38:33;;;;;;;3.17;1.10;;;;;;;10.74;99.67;98802.64;1640083;86;21547;-75
2021/09/20 10:41:16;;;;;;;2.40;0.90;;;;;;;10.72;100.00;98803.55;1633623;86;21056;-77
2021/09/20 10:44:19;;;;;;;4.58;1.82;;;;;;;10.71;100.00;98806.06;1635128;86;21033;-75
2021/09/20 10:46:46;;;;;;;5.75;1.62;;;;;;;10.72;100.00;98802.17;1604035;86;21487;-74
2021/09/20 10:49:21;;;;;;;3.40;1.32;;;;;;;10.75;100.00;98807.80;1625587;88;21019;-74
2021/09/20 10:52:08;;;;;;;2.87;1.20;;;;;;;10.78;100.00;98803.58;1633354;86;21165;-75
2021/09/20 10:54:39;;;;;;;3.05;1.15;;;;;;;10.79;100.00;98809.30;1596274;87;21627;-74
2021/09/20 10:57:14;;;;;;;4.47;0.97;;;;;;;10.83;100.00;98814.37;1603823;87;20995;-75
2021/09/20 10:59:47;;;;;;;1.57;0.80;;;;;;;10.83;100.00;98816.54;1608511;89;21078;-74
2021/09/20 11:02:29;;;;;;;1.45;0.90;;;;;;;10.82;100.00;98816.88;1601521;87;20937;-75
2021/09/20 11:05:06;;;;;;;1.20;0.90;;;;;;;10.82;100.00;98819.63;1604198;89;21094;-74
2021/09/20 11:07:53;;;;;;;1.65;0.90;;;;;;;10.83;100.00;98818.48;1611693;87;21012;-74
2021/09/20 11:10:34;;;;;;;1.25;0.80;;;;;;;10.83;100.00;98819.28;1625069;87;21015;-73
2021/09/20 11:13:08;;;;;;;1.50;0.98;;;;;;;10.87;100.00;98811.98;1634573;85;20975;-73
2021/09/20 11:15:42;;;;;;;1.20;0.70;;;;;;;10.85;100.00;98815.64;1628505;85;20939;-77
2021/09/20 11:18:35;;;;;;;1.82;0.90;;;;;;;10.87;100.00;98824.34;1661932;85;20934;-76
2021/09/20 11:21:09;;;;;;;4.97;0.70;;;;;;;10.89;100.00;98824.02;1665306;85;21023;-76
2021/09/20 11:23:38;;;;;;;0.70;0.70;;;;;;;10.88;100.00;98827.33;1631356;87;20940;-76
2021/09/20 11:26:19;;;;;;;1.80;1.00;;;;;;;10.84;100.00;98829.13;1633073;87;21539;-75
2021/09/20 11:28:53;;;;;;;2.77;1.35;;;;;;;10.80;100.00;98834.25;1698433;83;21022;-75
2021/09/20 11:31:32;;;;;;;1.27;0.90;;;;;;;10.77;100.00;98832.98;1697227;83;21170;-75
2021/09/20 11:34:06;;;;;;;1.85;1.22;;;;;;;10.78;100.00;98832.41;1681668;84;20997;-73
2021/09/20 11:36:36;;;;;;;0.85;0.70;;;;;;;10.78;100.00;98835.16;1684119;84;20930;-73
2021/09/20 11:39:14;;;;;;;2.05;0.72;;;;;;;10.76;100.00;98831.38;1693975;83;20958;-75
2021/09/20 11:41:46;;;;;;;1.57;0.82;;;;;;;10.76;100.00;98827.82;1676308;83;21539;-74
2021/09/20 11:44:17;;;;;;;1.10;0.85;;;;;;;10.81;100.00;98830.37;1701888;83;21046;-75
2021/09/20 11:46:45;;;;;;;0.70;0.70;;;;;;;10.92;100.00;98832.95;1668750;85;21582;-75
2021/09/20 11:49:24;;;;;;;1.10;0.60;;;;;;;11.03;100.00;98831.95;1671215;85;21009;-74
2021/09/20 11:51:57;;;;;;;1.07;0.80;;;;;;;11.11;100.00;98836.00;1631435;87;21689;-74
2021/09/20 11:54:37;;;;;;;0.68;0.60;;;;;;;11.18;100.00;98836.83;1680273;83;21010;-74
2021/09/20 11:57:18;;;;;;;2.02;0.95;;;;;;;11.20;100.00;98838.67;1656162;85;21008;-75
2021/09/20 11:59:59;;;;;;;1.50;0.75;;;;;;;11.17;100.00;98841.52;1653290;85;21542;-77
2021/09/20 12:02:29;;;;;;;1.85;0.60;;;;;;;11.16;100.00;98846.78;1629000;87;21507;-75